createdAt,value
2023-03-23T15:58:32.201Z,18.79
2023-03-23T16:01:05.877Z,19.18
2023-03-23T16:03:43.041Z,19.25
2023-03-23T16:06:24.110Z,19.24
2023-03-23T16:08:58.880Z,19.07
2023-03-23T16:11:31.329Z,18.94
2023-03-23T16:14:01.495Z,18.72
2023-03-23T16:16:35.665Z,18.92
2023-03-23T16:19:05.536Z,18.56
2023-03-23T16:21:36.690Z,18.91
2023-03-23T16:24:06.058Z,18.87
2023-03-23T16:26:35.870Z,18.89
2023-03-23T16:29:23.900Z,18.69
2023-03-23T16:32:02.727Z,18.60
2023-03-23T16:34:35.676Z,18.70
2023-03-23T16:37:06.999Z,18.61
2023-03-23T16:39:36.763Z,18.38
2023-03-23T16:42:06.245Z,18.42
2023-03-23T16:44:35.460Z,18.48
2023-03-23T16:47:05.355Z,18.62
2023-03-23T16:49:34.382Z,18.44
2023-03-23T16:52:03.450Z,18.19
2023-03-23T16:54:34.515Z,18.23
2023-03-23T16:57:03.821Z,18.31
2023-03-23T16:59:33.644Z,18.43
2023-03-23T17:02:04.078Z,18.31
2023-03-23T17:04:34.277Z,16.80
2023-03-23T17:07:03.323Z,17.94
2023-03-23T17:09:35.938Z,17.91
2023-03-23T17:12:05.742Z,18.18
2023-03-23T17:14:35.479Z,17.27
2023-03-23T17:17:05.041Z,17.79
2023-03-23T17:19:53.752Z,18.03
2023-03-23T17:22:38.818Z,17.98
2023-03-23T17:25:10.678Z,17.93
2023-03-23T17:27:43.000Z,17.83
2023-03-23T17:30:14.534Z,17.77
2023-03-23T17:32:44.717Z,17.84
2023-03-23T17:35:14.282Z,17.91
2023-03-23T17:37:45.270Z,17.82
2023-03-23T17:40:54.234Z,17.70
2023-03-23T17:43:24.170Z,17.97
2023-03-23T17:45:53.643Z,18.03
2023-03-23T17:48:23.412Z,17.94
2023-03-23T17:50:57.682Z,18.00
2023-03-23T17:53:26.803Z,17.80
2023-03-23T17:56:00.500Z,17.83
2023-03-23T17:58:29.769Z,17.83
2023-03-23T18:01:09.664Z,17.46
2023-03-23T18:03:44.734Z,17.81
2023-03-23T18:06:15.856Z,17.53
2023-03-23T18:08:47.995Z,17.42
2023-03-23T18:11:19.912Z,17.39
2023-03-23T18:13:49.718Z,17.34
2023-03-23T18:16:20.503Z,17.21
2023-03-23T18:18:51.313Z,17.22
2023-03-23T18:21:23.320Z,16.70
2023-03-23T18:23:59.195Z,17.19
2023-03-23T18:26:38.158Z,17.02
2023-03-23T18:29:07.711Z,16.93
2023-03-23T18:31:40.411Z,16.79
2023-03-23T18:34:10.616Z,16.58
2023-03-23T18:36:40.475Z,16.62
2023-03-23T18:39:12.268Z,16.54
2023-03-23T18:41:45.862Z,16.40
2023-03-23T18:44:15.496Z,16.55
2023-03-23T18:46:45.070Z,16.92
2023-03-23T18:49:16.278Z,16.68
2023-03-23T18:51:46.112Z,16.86
2023-03-23T18:54:18.583Z,16.38
2023-03-23T18:56:50.717Z,17.08
2023-03-23T18:59:27.609Z,16.94
2023-03-23T19:01:59.781Z,16.79
2023-03-23T19:04:31.935Z,16.83
2023-03-23T19:07:04.045Z,15.47
2023-03-23T19:09:43.233Z,16.63
2023-03-23T19:12:24.671Z,16.39
2023-03-23T19:14:54.755Z,16.81
2023-03-23T19:17:25.227Z,16.52
2023-03-23T19:19:54.921Z,16.51
2023-03-23T19:22:25.003Z,16.26
2023-03-23T19:24:54.330Z,16.45
2023-03-23T19:27:24.667Z,16.62
2023-03-23T19:29:54.068Z,16.46
2023-03-23T19:32:25.266Z,16.51
2023-03-23T19:34:55.076Z,16.58
2023-03-23T19:37:27.484Z,16.66
2023-03-23T19:39:56.957Z,16.70
2023-03-23T19:42:27.622Z,16.63
2023-03-23T19:45:00.240Z,16.65
2023-03-23T19:47:29.476Z,16.68
2023-03-23T19:49:59.975Z,16.65
2023-03-23T19:52:31.349Z,16.54
2023-03-23T19:55:01.300Z,16.70
2023-03-23T19:57:34.735Z,16.65
2023-03-23T20:00:07.592Z,16.62
2023-03-23T20:02:38.294Z,16.37
2023-03-23T20:05:08.853Z,16.59
2023-03-23T20:07:41.134Z,16.75
2023-03-23T20:10:11.671Z,16.71
2023-03-23T20:12:44.393Z,16.43
2023-03-23T20:15:13.992Z,16.40
2023-03-23T20:17:48.289Z,16.60
2023-03-23T20:20:18.462Z,16.56
2023-03-23T20:22:50.027Z,16.28
2023-03-23T20:25:21.577Z,16.39
2023-03-23T20:27:52.721Z,16.32
2023-03-23T20:30:23.995Z,16.25
2023-03-23T20:33:00.658Z,16.03
2023-03-23T20:35:31.987Z,15.92
2023-03-23T20:38:01.673Z,16.02
2023-03-23T20:40:31.145Z,15.91
2023-03-23T20:43:04.252Z,15.91
2023-03-23T20:45:39.097Z,15.93
2023-03-23T20:48:42.972Z,15.76
2023-03-23T20:51:12.998Z,15.36
2023-03-23T20:53:42.767Z,15.44
2023-03-23T20:56:16.393Z,14.83
2023-03-23T20:58:49.356Z,15.47
2023-03-23T21:01:18.994Z,15.45
2023-03-23T21:03:52.223Z,15.34
2023-03-23T21:06:23.642Z,15.39
2023-03-23T21:08:53.409Z,15.43
2023-03-23T21:11:45.154Z,15.13
2023-03-23T21:14:17.242Z,14.85
2023-03-23T21:16:46.744Z,15.51
2023-03-23T21:19:16.239Z,15.46
2023-03-23T21:21:56.684Z,15.39
2023-03-23T21:24:28.397Z,15.61
2023-03-23T21:26:59.320Z,15.47
2023-03-23T21:29:33.571Z,15.30
2023-03-23T21:32:08.296Z,15.47
2023-03-23T21:34:40.805Z,15.45
2023-03-23T21:37:12.617Z,15.39
2023-03-23T21:39:41.814Z,15.31
2023-03-23T21:42:13.723Z,15.52
2023-03-23T21:44:44.081Z,15.59
2023-03-23T21:47:16.225Z,15.47
2023-03-23T21:49:46.158Z,15.49
2023-03-23T21:52:15.526Z,15.15
2023-03-23T21:54:45.785Z,15.51
2023-03-23T21:57:14.728Z,15.41
2023-03-23T21:59:45.493Z,15.06
2023-03-23T22:02:15.884Z,15.29
2023-03-23T22:04:45.215Z,15.05
2023-03-23T22:07:14.488Z,15.37
2023-03-23T22:09:45.038Z,15.32
2023-03-23T22:12:14.661Z,15.10
2023-03-23T22:14:45.417Z,15.34
2023-03-23T22:17:20.251Z,15.15
2023-03-23T22:19:52.340Z,15.43
2023-03-23T22:22:21.767Z,15.37
2023-03-23T22:24:54.526Z,15.38
2023-03-23T22:27:27.170Z,14.46
2023-03-23T22:29:57.781Z,15.38
2023-03-23T22:32:27.304Z,15.39
2023-03-23T22:34:57.567Z,15.29
2023-03-23T22:37:40.054Z,15.23
2023-03-23T22:40:11.684Z,15.36
2023-03-23T22:42:43.103Z,15.12
2023-03-23T22:45:13.545Z,15.23
2023-03-23T22:47:42.822Z,15.18
2023-03-23T22:50:12.286Z,15.27
2023-03-23T22:52:41.429Z,14.89
2023-03-23T22:55:10.858Z,15.15
2023-03-23T22:57:39.959Z,15.21
2023-03-23T23:00:14.716Z,15.15
2023-03-23T23:02:49.955Z,15.19
2023-03-23T23:05:19.177Z,15.08
2023-03-23T23:07:48.204Z,15.17
2023-03-23T23:10:17.811Z,15.22
2023-03-23T23:12:47.795Z,15.20
2023-03-23T23:15:17.247Z,15.30
2023-03-23T23:17:48.102Z,15.31
2023-03-23T23:20:18.880Z,15.32
2023-03-23T23:22:47.993Z,14.99
2023-03-23T23:25:17.431Z,15.41
2023-03-23T23:27:46.694Z,15.33
2023-03-23T23:30:15.897Z,15.24
2023-03-23T23:32:45.207Z,15.19
2023-03-23T23:35:15.677Z,15.20
2023-03-23T23:37:44.695Z,15.26
2023-03-23T23:40:17.988Z,15.18
2023-03-23T23:42:48.903Z,15.44
2023-03-23T23:45:18.207Z,15.54
2023-03-23T23:47:48.053Z,15.37
2023-03-23T23:50:18.861Z,15.35
2023-03-23T23:52:50.350Z,15.36
2023-03-23T23:55:20.593Z,15.36
2023-03-23T23:57:52.694Z,15.18
